sensor_id;sensor_type;location;lat;lon;timestamp;temperature;humidity
31769;DHT22;18342;52.132;21.048;2022-08-04T00:02:20;21.60;99.90
31769;DHT22;18342;52.132;21.048;2022-08-04T00:04:53;21.60;99.90
31769;DHT22;18342;52.132;21.048;2022-08-04T00:07:53;21.60;99.90
31769;DHT22;18342;52.132;21.048;2022-08-04T00:10:24;21.60;99.90
31769;DHT22;18342;52.132;21.048;2022-08-04T00:12:57;21.60;99.90
31769;DHT22;18342;52.132;21.048;2022-08-04T00:15:23;21.60;99.90
31769;DHT22;18342;52.132;21.048;2022-08-04T00:18:01;21.60;99.90
31769;DHT22;18342;52.132;21.048;2022-08-04T00:20:31;21.50;99.90
31769;DHT22;18342;52.132;21.048;2022-08-04T00:22:59;21.50;99.90
31769;DHT22;18342;52.132;21.048;2022-08-04T00:25:25;21.50;99.90
31769;DHT22;18342;52.132;21.048;2022-08-04T00:27:51;21.40;99.90
31769;DHT22;18342;52.132;21.048;2022-08-04T00:30:16;21.40;99.90
31769;DHT22;18342;52.132;21.048;2022-08-04T00:32:42;21.40;99.90
31769;DHT22;18342;52.132;21.048;2022-08-04T00:35:09;21.30;99.90
31769;DHT22;18342;52.132;21.048;2022-08-04T00:37:37;21.30;99.90
31769;DHT22;18342;52.132;21.048;2022-08-04T00:40:28;21.40;99.90
31769;DHT22;18342;52.132;21.048;2022-08-04T00:48:40;21.30;99.90
31769;DHT22;18342;52.132;21.048;2022-08-04T01:02:06;21.30;99.90
31769;DHT22;18342;52.132;21.048;2022-08-04T01:07:26;21.20;99.90
31769;DHT22;18342;52.132;21.048;2022-08-04T01:20:20;21.10;99.90
31769;DHT22;18342;52.132;21.048;2022-08-04T01:34:05;20.90;99.90
31769;DHT22;18342;52.132;21.048;2022-08-04T01:36:42;20.90;99.90
31769;DHT22;18342;52.132;21.048;2022-08-04T01:39:09;20.80;99.90
31769;DHT22;18342;52.132;21.048;2022-08-04T01:41:55;20.80;99.90
31769;DHT22;18342;52.132;21.048;2022-08-04T01:44:23;20.80;99.90
31769;DHT22;18342;52.132;21.048;2022-08-04T01:46:50;20.80;99.90
31769;DHT22;18342;52.132;21.048;2022-08-04T01:49:20;20.80;99.90
31769;DHT22;18342;52.132;21.048;2022-08-04T01:51:49;20.80;99.90
31769;DHT22;18342;52.132;21.048;2022-08-04T01:54:17;20.80;99.90
31769;DHT22;18342;52.132;21.048;2022-08-04T01:56:46;20.80;99.90
31769;DHT22;18342;52.132;21.048;2022-08-04T01:59:17;20.80;99.90
31769;DHT22;18342;52.132;21.048;2022-08-04T02:01:43;20.80;99.90
31769;DHT22;18342;52.132;21.048;2022-08-04T02:04:17;20.80;99.90
31769;DHT22;18342;52.132;21.048;2022-08-04T02:09:37;20.90;99.90
31769;DHT22;18342;52.132;21.048;2022-08-04T02:14:54;20.80;99.90
31769;DHT22;18342;52.132;21.048;2022-08-04T02:20:00;20.80;99.90
31769;DHT22;18342;52.132;21.048;2022-08-04T02:22:27;20.80;99.90
31769;DHT22;18342;52.132;21.048;2022-08-04T02:25:18;20.80;99.90
31769;DHT22;18342;52.132;21.048;2022-08-04T02:34:12;20.70;99.90
31769;DHT22;18342;52.132;21.048;2022-08-04T02:36:42;20.60;99.90
31769;DHT22;18342;52.132;21.048;2022-08-04T02:39:11;20.60;99.90
31769;DHT22;18342;52.132;21.048;2022-08-04T02:41:38;20.60;99.90
31769;DHT22;18342;52.132;21.048;2022-08-04T02:44:09;20.60;99.90
31769;DHT22;18342;52.132;21.048;2022-08-04T02:46:36;20.50;99.90
31769;DHT22;18342;52.132;21.048;2022-08-04T02:49:05;20.50;99.90
31769;DHT22;18342;52.132;21.048;2022-08-04T02:51:34;20.50;99.90
31769;DHT22;18342;52.132;21.048;2022-08-04T02:54:03;20.40;99.90
31769;DHT22;18342;52.132;21.048;2022-08-04T02:56:31;20.50;99.90
31769;DHT22;18342;52.132;21.048;2022-08-04T02:59:13;20.40;99.90
31769;DHT22;18342;52.132;21.048;2022-08-04T03:01:40;20.40;99.90
31769;DHT22;18342;52.132;21.048;2022-08-04T03:13:32;20.40;99.90
31769;DHT22;18342;52.132;21.048;2022-08-04T03:16:14;20.40;99.90
31769;DHT22;18342;52.132;21.048;2022-08-04T03:56:25;20.40;99.90
31769;DHT22;18342;52.132;21.048;2022-08-04T04:02:04;20.40;99.90
31769;DHT22;18342;52.132;21.048;2022-08-04T04:10:33;20.40;99.90
31769;DHT22;18342;52.132;21.048;2022-08-04T04:16:06;20.50;99.90
31769;DHT22;18342;52.132;21.048;2022-08-04T04:28:04;20.40;99.90
31769;DHT22;18342;52.132;21.048;2022-08-04T04:30:16;20.50;99.90
31769;DHT22;18342;52.132;21.048;2022-08-04T04:55:32;20.60;99.90
31769;DHT22;18342;52.132;21.048;2022-08-04T04:58:00;20.70;99.90
31769;DHT22;18342;52.132;21.048;2022-08-04T05:14:17;21.10;99.90
31769;DHT22;18342;52.132;21.048;2022-08-04T05:16:57;21.10;99.90
31769;DHT22;18342;52.132;21.048;2022-08-04T05:19:51;21.20;99.90
31769;DHT22;18342;52.132;21.048;2022-08-04T05:27:45;21.50;99.90
31769;DHT22;18342;52.132;21.048;2022-08-04T05:30:16;21.50;99.90
31769;DHT22;18342;52.132;21.048;2022-08-04T05:32:56;21.60;99.90
31769;DHT22;18342;52.132;21.048;2022-08-04T05:35:29;21.60;99.90
31769;DHT22;18342;52.132;21.048;2022-08-04T05:37:58;21.70;99.90
31769;DHT22;18342;52.132;21.048;2022-08-04T05:40:25;21.80;99.90
31769;DHT22;18342;52.132;21.048;2022-08-04T05:42:53;21.90;99.90
31769;DHT22;18342;52.132;21.048;2022-08-04T05:45:21;21.90;99.90
31769;DHT22;18342;52.132;21.048;2022-08-04T05:47:48;22.00;99.90
31769;DHT22;18342;52.132;21.048;2022-08-04T05:50:15;22.00;99.90
31769;DHT22;18342;52.132;21.048;2022-08-04T05:52:42;22.10;99.90
31769;DHT22;18342;52.132;21.048;2022-08-04T05:55:10;22.20;99.90
31769;DHT22;18342;52.132;21.048;2022-08-04T05:57:39;22.20;99.90
31769;DHT22;18342;52.132;21.048;2022-08-04T06:00:06;22.30;99.90
31769;DHT22;18342;52.132;21.048;2022-08-04T06:02:34;22.30;99.90
31769;DHT22;18342;52.132;21.048;2022-08-04T06:05:01;22.30;99.90
31769;DHT22;18342;52.132;21.048;2022-08-04T06:07:27;22.30;99.90
31769;DHT22;18342;52.132;21.048;2022-08-04T06:09:53;22.30;99.90
31769;DHT22;18342;52.132;21.048;2022-08-04T06:12:25;22.30;99.90
31769;DHT22;18342;52.132;21.048;2022-08-04T06:14:53;22.40;99.90
31769;DHT22;18342;52.132;21.048;2022-08-04T06:17:35;22.40;99.90
31769;DHT22;18342;52.132;21.048;2022-08-04T06:20:03;22.50;99.90
31769;DHT22;18342;52.132;21.048;2022-08-04T06:22:31;22.50;99.90
31769;DHT22;18342;52.132;21.048;2022-08-04T06:25:00;22.60;99.90
31769;DHT22;18342;52.132;21.048;2022-08-04T06:27:28;22.70;99.90
31769;DHT22;18342;52.132;21.048;2022-08-04T06:29:55;22.70;99.90
31769;DHT22;18342;52.132;21.048;2022-08-04T06:32:24;22.80;99.90
31769;DHT22;18342;52.132;21.048;2022-08-04T06:35:03;22.80;99.90
31769;DHT22;18342;52.132;21.048;2022-08-04T06:37:30;23.00;99.90
31769;DHT22;18342;52.132;21.048;2022-08-04T06:39:56;23.10;99.90
31769;DHT22;18342;52.132;21.048;2022-08-04T06:42:24;23.20;99.90
31769;DHT22;18342;52.132;21.048;2022-08-04T06:44:54;23.30;99.90
31769;DHT22;18342;52.132;21.048;2022-08-04T06:47:21;23.50;99.90
31769;DHT22;18342;52.132;21.048;2022-08-04T06:49:48;23.50;99.90
31769;DHT22;18342;52.132;21.048;2022-08-04T06:52:15;23.60;99.90
31769;DHT22;18342;52.132;21.048;2022-08-04T06:54:44;23.70;99.90
31769;DHT22;18342;52.132;21.048;2022-08-04T06:57:12;23.80;99.90
31769;DHT22;18342;52.132;21.048;2022-08-04T06:59:43;23.90;99.90
31769;DHT22;18342;52.132;21.048;2022-08-04T07:02:19;24.00;99.90
31769;DHT22;18342;52.132;21.048;2022-08-04T07:04:47;24.10;99.90
31769;DHT22;18342;52.132;21.048;2022-08-04T07:07:13;24.20;99.90
31769;DHT22;18342;52.132;21.048;2022-08-04T07:09:39;24.20;99.90
31769;DHT22;18342;52.132;21.048;2022-08-04T07:12:08;24.30;99.90
31769;DHT22;18342;52.132;21.048;2022-08-04T07:14:35;24.40;99.90
31769;DHT22;18342;52.132;21.048;2022-08-04T07:17:07;24.50;99.90
31769;DHT22;18342;52.132;21.048;2022-08-04T07:19:35;24.60;99.90
31769;DHT22;18342;52.132;21.048;2022-08-04T07:22:02;24.70;99.90
31769;DHT22;18342;52.132;21.048;2022-08-04T07:24:34;24.80;99.90
31769;DHT22;18342;52.132;21.048;2022-08-04T07:27:01;24.80;99.90
31769;DHT22;18342;52.132;21.048;2022-08-04T07:29:27;24.90;99.90
31769;DHT22;18342;52.132;21.048;2022-08-04T07:31:57;25.00;99.90
31769;DHT22;18342;52.132;21.048;2022-08-04T07:34:25;25.00;99.90
31769;DHT22;18342;52.132;21.048;2022-08-04T07:36:53;25.10;99.90
31769;DHT22;18342;52.132;21.048;2022-08-04T07:39:21;25.10;99.90
31769;DHT22;18342;52.132;21.048;2022-08-04T07:41:47;25.20;99.90
31769;DHT22;18342;52.132;21.048;2022-08-04T07:44:14;25.30;99.90
31769;DHT22;18342;52.132;21.048;2022-08-04T07:46:41;25.30;99.90
31769;DHT22;18342;52.132;21.048;2022-08-04T07:49:07;25.40;99.90
31769;DHT22;18342;52.132;21.048;2022-08-04T07:51:35;25.50;99.90
31769;DHT22;18342;52.132;21.048;2022-08-04T07:54:01;25.50;99.90
31769;DHT22;18342;52.132;21.048;2022-08-04T07:56:36;25.60;99.90
31769;DHT22;18342;52.132;21.048;2022-08-04T07:59:02;25.70;99.90
31769;DHT22;18342;52.132;21.048;2022-08-04T08:01:29;25.80;99.90
31769;DHT22;18342;52.132;21.048;2022-08-04T08:03:56;25.90;99.90
31769;DHT22;18342;52.132;21.048;2022-08-04T08:06:23;26.00;99.90
31769;DHT22;18342;52.132;21.048;2022-08-04T08:08:49;26.10;99.90
31769;DHT22;18342;52.132;21.048;2022-08-04T08:11:15;26.20;99.90
31769;DHT22;18342;52.132;21.048;2022-08-04T08:13:42;26.30;99.90
31769;DHT22;18342;52.132;21.048;2022-08-04T08:16:10;26.40;99.90
31769;DHT22;18342;52.132;21.048;2022-08-04T08:18:36;26.40;99.90
31769;DHT22;18342;52.132;21.048;2022-08-04T08:21:03;26.50;99.90
31769;DHT22;18342;52.132;21.048;2022-08-04T08:23:30;26.60;99.90
31769;DHT22;18342;52.132;21.048;2022-08-04T08:25:57;26.60;99.90
31769;DHT22;18342;52.132;21.048;2022-08-04T08:28:23;26.70;99.90
31769;DHT22;18342;52.132;21.048;2022-08-04T08:30:49;26.80;99.90
31769;DHT22;18342;52.132;21.048;2022-08-04T08:33:15;26.90;99.90
31769;DHT22;18342;52.132;21.048;2022-08-04T08:36:12;26.90;99.90
31769;DHT22;18342;52.132;21.048;2022-08-04T08:49:35;27.10;99.90
31769;DHT22;18342;52.132;21.048;2022-08-04T08:52:36;27.10;99.90
31769;DHT22;18342;52.132;21.048;2022-08-04T08:55:54;27.10;99.90
31769;DHT22;18342;52.132;21.048;2022-08-04T09:09:45;27.60;98.70
31769;DHT22;18342;52.132;21.048;2022-08-04T09:12:29;27.80;98.20
31769;DHT22;18342;52.132;21.048;2022-08-04T09:15:03;27.90;98.00
31769;DHT22;18342;52.132;21.048;2022-08-04T09:17:39;28.00;99.00
31769;DHT22;18342;52.132;21.048;2022-08-04T09:20:21;28.10;97.00
31769;DHT22;18342;52.132;21.048;2022-08-04T09:22:58;28.20;96.50
31769;DHT22;18342;52.132;21.048;2022-08-04T09:25:29;28.30;96.60
31769;DHT22;18342;52.132;21.048;2022-08-04T09:27:59;28.40;97.80
31769;DHT22;18342;52.132;21.048;2022-08-04T09:31:08;28.50;97.00
31769;DHT22;18342;52.132;21.048;2022-08-04T09:39:08;28.70;96.10
31769;DHT22;18342;52.132;21.048;2022-08-04T09:49:43;29.10;95.90
31769;DHT22;18342;52.132;21.048;2022-08-04T10:01:00;29.00;96.60
31769;DHT22;18342;52.132;21.048;2022-08-04T10:03:33;29.10;96.30
31769;DHT22;18342;52.132;21.048;2022-08-04T10:11:20;29.50;95.10
31769;DHT22;18342;52.132;21.048;2022-08-04T10:17:00;29.60;93.70
31769;DHT22;18342;52.132;21.048;2022-08-04T10:19:28;29.60;93.80
31769;DHT22;18342;52.132;21.048;2022-08-04T10:22:25;29.60;94.10
31769;DHT22;18342;52.132;21.048;2022-08-04T10:28:02;29.70;93.60
31769;DHT22;18342;52.132;21.048;2022-08-04T10:30:32;29.70;93.40
31769;DHT22;18342;52.132;21.048;2022-08-04T10:33:06;29.70;93.10
31769;DHT22;18342;52.132;21.048;2022-08-04T10:35:45;29.50;93.10
31769;DHT22;18342;52.132;21.048;2022-08-04T10:38:17;29.50;92.90
31769;DHT22;18342;52.132;21.048;2022-08-04T10:40:49;29.50;94.70
31769;DHT22;18342;52.132;21.048;2022-08-04T10:48:55;29.50;93.10
31769;DHT22;18342;52.132;21.048;2022-08-04T10:51:45;29.60;93.30
31769;DHT22;18342;52.132;21.048;2022-08-04T10:54:27;29.60;92.90
31769;DHT22;18342;52.132;21.048;2022-08-04T10:56:59;29.70;93.50
31769;DHT22;18342;52.132;21.048;2022-08-04T10:59:55;29.70;93.60
31769;DHT22;18342;52.132;21.048;2022-08-04T11:06:03;29.80;93.30
31769;DHT22;18342;52.132;21.048;2022-08-04T11:13:39;29.90;92.30
31769;DHT22;18342;52.132;21.048;2022-08-04T11:16:12;29.80;91.40
31769;DHT22;18342;52.132;21.048;2022-08-04T11:18:57;29.80;92.20
31769;DHT22;18342;52.132;21.048;2022-08-04T11:21:33;29.80;91.90
31769;DHT22;18342;52.132;21.048;2022-08-04T11:24:07;29.80;92.00
31769;DHT22;18342;52.132;21.048;2022-08-04T11:26:58;29.70;92.90
31769;DHT22;18342;52.132;21.048;2022-08-04T11:32:12;29.60;91.70
31769;DHT22;18342;52.132;21.048;2022-08-04T11:34:48;29.50;91.50
31769;DHT22;18342;52.132;21.048;2022-08-04T11:37:22;29.50;91.60
31769;DHT22;18342;52.132;21.048;2022-08-04T11:39:59;29.40;91.40
31769;DHT22;18342;52.132;21.048;2022-08-04T11:42:35;29.40;92.20
31769;DHT22;18342;52.132;21.048;2022-08-04T11:45:35;29.30;91.60
31769;DHT22;18342;52.132;21.048;2022-08-04T11:48:41;29.20;92.30
31769;DHT22;18342;52.132;21.048;2022-08-04T11:51:10;29.20;92.30
31769;DHT22;18342;52.132;21.048;2022-08-04T11:53:37;29.20;92.70
31769;DHT22;18342;52.132;21.048;2022-08-04T11:56:10;29.10;91.80
31769;DHT22;18342;52.132;21.048;2022-08-04T11:58:37;29.00;91.20
31769;DHT22;18342;52.132;21.048;2022-08-04T12:06:17;28.70;93.00
31769;DHT22;18342;52.132;21.048;2022-08-04T12:11:45;28.70;92.00
31769;DHT22;18342;52.132;21.048;2022-08-04T12:17:04;28.60;91.80
31769;DHT22;18342;52.132;21.048;2022-08-04T12:19:54;28.50;91.60
31769;DHT22;18342;52.132;21.048;2022-08-04T12:22:28;28.50;92.20
31769;DHT22;18342;52.132;21.048;2022-08-04T12:25:11;28.40;92.40
31769;DHT22;18342;52.132;21.048;2022-08-04T12:30:13;28.30;93.10
31769;DHT22;18342;52.132;21.048;2022-08-04T12:35:26;28.30;93.20
31769;DHT22;18342;52.132;21.048;2022-08-04T12:38:06;28.30;91.90
31769;DHT22;18342;52.132;21.048;2022-08-04T12:40:51;28.30;91.40
31769;DHT22;18342;52.132;21.048;2022-08-04T12:43:27;28.30;91.80
31769;DHT22;18342;52.132;21.048;2022-08-04T12:46:01;28.30;91.50
31769;DHT22;18342;52.132;21.048;2022-08-04T12:48:28;28.20;91.50
31769;DHT22;18342;52.132;21.048;2022-08-04T12:50:56;28.20;92.30
31769;DHT22;18342;52.132;21.048;2022-08-04T12:53:26;28.20;91.60
31769;DHT22;18342;52.132;21.048;2022-08-04T12:55:53;28.20;91.50
31769;DHT22;18342;52.132;21.048;2022-08-04T12:58:23;28.20;91.50
31769;DHT22;18342;52.132;21.048;2022-08-04T13:00:58;28.20;91.50
31769;DHT22;18342;52.132;21.048;2022-08-04T13:03:29;28.20;90.90
31769;DHT22;18342;52.132;21.048;2022-08-04T13:06:01;28.20;92.10
31769;DHT22;18342;52.132;21.048;2022-08-04T13:08:28;28.20;90.90
31769;DHT22;18342;52.132;21.048;2022-08-04T13:10:56;28.10;90.70
31769;DHT22;18342;52.132;21.048;2022-08-04T13:13:28;28.10;90.90
31769;DHT22;18342;52.132;21.048;2022-08-04T13:16:02;28.10;90.70
31769;DHT22;18342;52.132;21.048;2022-08-04T13:18:54;28.00;91.20
31769;DHT22;18342;52.132;21.048;2022-08-04T13:21:21;28.00;91.20
31769;DHT22;18342;52.132;21.048;2022-08-04T13:23:53;28.00;90.40
31769;DHT22;18342;52.132;21.048;2022-08-04T13:26:21;28.00;90.80
31769;DHT22;18342;52.132;21.048;2022-08-04T13:28:48;27.90;90.00
31769;DHT22;18342;52.132;21.048;2022-08-04T13:31:18;28.00;90.90
31769;DHT22;18342;52.132;21.048;2022-08-04T13:33:47;28.00;90.70
31769;DHT22;18342;52.132;21.048;2022-08-04T13:36:15;27.90;90.90
31769;DHT22;18342;52.132;21.048;2022-08-04T13:38:52;27.90;91.00
31769;DHT22;18342;52.132;21.048;2022-08-04T13:41:20;27.90;91.00
31769;DHT22;18342;52.132;21.048;2022-08-04T13:43:54;27.90;91.10
31769;DHT22;18342;52.132;21.048;2022-08-04T13:46:27;27.90;91.00
31769;DHT22;18342;52.132;21.048;2022-08-04T13:48:57;27.90;90.10
31769;DHT22;18342;52.132;21.048;2022-08-04T13:51:24;27.90;90.30
31769;DHT22;18342;52.132;21.048;2022-08-04T13:53:58;27.90;90.60
31769;DHT22;18342;52.132;21.048;2022-08-04T13:56:31;27.90;90.00
31769;DHT22;18342;52.132;21.048;2022-08-04T13:58:59;27.90;87.90
31769;DHT22;18342;52.132;21.048;2022-08-04T14:01:27;27.80;87.70
31769;DHT22;18342;52.132;21.048;2022-08-04T14:06:31;27.80;90.30
31769;DHT22;18342;52.132;21.048;2022-08-04T14:09:14;27.80;90.60
31769;DHT22;18342;52.132;21.048;2022-08-04T14:11:42;27.80;90.10
31769;DHT22;18342;52.132;21.048;2022-08-04T14:14:23;27.80;88.90
31769;DHT22;18342;52.132;21.048;2022-08-04T14:17:08;27.80;90.10
31769;DHT22;18342;52.132;21.048;2022-08-04T14:19:54;27.80;88.60
31769;DHT22;18342;52.132;21.048;2022-08-04T14:27:30;27.80;88.10
31769;DHT22;18342;52.132;21.048;2022-08-04T14:30:05;27.80;87.50
31769;DHT22;18342;52.132;21.048;2022-08-04T14:32:30;27.80;88.60
31769;DHT22;18342;52.132;21.048;2022-08-04T14:34:56;27.80;89.40
31769;DHT22;18342;52.132;21.048;2022-08-04T14:37:22;27.80;89.60
31769;DHT22;18342;52.132;21.048;2022-08-04T14:39:50;27.80;88.30
31769;DHT22;18342;52.132;21.048;2022-08-04T14:42:18;27.80;90.00
31769;DHT22;18342;52.132;21.048;2022-08-04T14:45:04;27.80;88.90
31769;DHT22;18342;52.132;21.048;2022-08-04T14:50:06;27.70;89.50
31769;DHT22;18342;52.132;21.048;2022-08-04T14:52:32;27.70;89.00
31769;DHT22;18342;52.132;21.048;2022-08-04T14:55:00;27.70;89.10
31769;DHT22;18342;52.132;21.048;2022-08-04T14:57:39;27.70;89.80
31769;DHT22;18342;52.132;21.048;2022-08-04T15:00:05;27.70;89.20
31769;DHT22;18342;52.132;21.048;2022-08-04T15:02:31;27.70;89.40
31769;DHT22;18342;52.132;21.048;2022-08-04T15:04:58;27.70;88.90
31769;DHT22;18342;52.132;21.048;2022-08-04T15:07:25;27.70;88.70
31769;DHT22;18342;52.132;21.048;2022-08-04T15:09:51;27.70;89.70
31769;DHT22;18342;52.132;21.048;2022-08-04T15:12:17;27.70;90.50
31769;DHT22;18342;52.132;21.048;2022-08-04T15:14:42;27.60;90.10
31769;DHT22;18342;52.132;21.048;2022-08-04T15:17:10;27.60;90.00
31769;DHT22;18342;52.132;21.048;2022-08-04T15:19:37;27.60;90.00
31769;DHT22;18342;52.132;21.048;2022-08-04T15:22:03;27.70;88.60
31769;DHT22;18342;52.132;21.048;2022-08-04T15:24:29;27.60;88.70
31769;DHT22;18342;52.132;21.048;2022-08-04T15:26:56;27.60;88.60
31769;DHT22;18342;52.132;21.048;2022-08-04T15:29:30;27.60;87.80
31769;DHT22;18342;52.132;21.048;2022-08-04T15:32:02;27.60;88.60
31769;DHT22;18342;52.132;21.048;2022-08-04T15:34:49;27.60;89.20
31769;DHT22;18342;52.132;21.048;2022-08-04T15:37:23;27.60;90.50
31769;DHT22;18342;52.132;21.048;2022-08-04T15:39:59;27.50;90.40
31769;DHT22;18342;52.132;21.048;2022-08-04T15:42:35;27.50;89.60
31769;DHT22;18342;52.132;21.048;2022-08-04T15:45:10;27.50;89.70
31769;DHT22;18342;52.132;21.048;2022-08-04T15:47:37;27.50;88.30
31769;DHT22;18342;52.132;21.048;2022-08-04T15:50:11;27.50;89.00
31769;DHT22;18342;52.132;21.048;2022-08-04T15:58:05;27.50;89.60
31769;DHT22;18342;52.132;21.048;2022-08-04T16:06:00;27.50;90.10
31769;DHT22;18342;52.132;21.048;2022-08-04T16:08:26;27.40;90.10
31769;DHT22;18342;52.132;21.048;2022-08-04T16:10:52;27.40;90.40
31769;DHT22;18342;52.132;21.048;2022-08-04T16:13:20;27.40;90.10
31769;DHT22;18342;52.132;21.048;2022-08-04T16:18:38;27.40;90.10
31769;DHT22;18342;52.132;21.048;2022-08-04T16:21:15;27.40;90.60
31769;DHT22;18342;52.132;21.048;2022-08-04T16:32:17;27.30;91.20
31769;DHT22;18342;52.132;21.048;2022-08-04T16:35:03;27.30;91.20
31769;DHT22;18342;52.132;21.048;2022-08-04T16:40:34;27.20;91.40
31769;DHT22;18342;52.132;21.048;2022-08-04T16:43:17;27.20;91.30
31769;DHT22;18342;52.132;21.048;2022-08-04T16:48:13;27.20;92.10
31769;DHT22;18342;52.132;21.048;2022-08-04T16:51:09;27.10;92.00
31769;DHT22;18342;52.132;21.048;2022-08-04T16:53:40;27.10;92.20
31769;DHT22;18342;52.132;21.048;2022-08-04T16:56:09;27.10;93.10
31769;DHT22;18342;52.132;21.048;2022-08-04T16:58:36;27.10;93.40
31769;DHT22;18342;52.132;21.048;2022-08-04T17:01:08;27.00;93.50
31769;DHT22;18342;52.132;21.048;2022-08-04T17:03:39;26.90;94.50
31769;DHT22;18342;52.132;21.048;2022-08-04T17:06:15;26.90;95.40
31769;DHT22;18342;52.132;21.048;2022-08-04T17:08:43;26.80;96.10
31769;DHT22;18342;52.132;21.048;2022-08-04T17:11:09;26.70;96.70
31769;DHT22;18342;52.132;21.048;2022-08-04T17:13:40;26.60;97.50
31769;DHT22;18342;52.132;21.048;2022-08-04T17:16:09;26.60;98.20
31769;DHT22;18342;52.132;21.048;2022-08-04T17:18:37;26.50;98.90
31769;DHT22;18342;52.132;21.048;2022-08-04T17:21:07;26.40;99.60
31769;DHT22;18342;52.132;21.048;2022-08-04T17:28:27;26.10;99.90
31769;DHT22;18342;52.132;21.048;2022-08-04T17:30:54;26.10;99.90
31769;DHT22;18342;52.132;21.048;2022-08-04T17:33:22;26.00;99.90
31769;DHT22;18342;52.132;21.048;2022-08-04T17:35:49;25.90;99.90
31769;DHT22;18342;52.132;21.048;2022-08-04T17:38:14;25.80;99.90
31769;DHT22;18342;52.132;21.048;2022-08-04T17:41:00;25.80;99.90
31769;DHT22;18342;52.132;21.048;2022-08-04T17:43:53;25.80;99.90
31769;DHT22;18342;52.132;21.048;2022-08-04T17:51:51;25.60;99.90
31769;DHT22;18342;52.132;21.048;2022-08-04T17:56:55;25.50;99.90
31769;DHT22;18342;52.132;21.048;2022-08-04T18:07:00;25.30;99.90
31769;DHT22;18342;52.132;21.048;2022-08-04T18:09:29;25.30;99.90
31769;DHT22;18342;52.132;21.048;2022-08-04T18:12:01;25.30;99.90
31769;DHT22;18342;52.132;21.048;2022-08-04T18:14:37;25.20;99.90
31769;DHT22;18342;52.132;21.048;2022-08-04T18:17:04;25.20;99.90
31769;DHT22;18342;52.132;21.048;2022-08-04T18:19:29;25.10;99.90
31769;DHT22;18342;52.132;21.048;2022-08-04T18:21:55;25.00;99.90
31769;DHT22;18342;52.132;21.048;2022-08-04T18:24:21;25.00;99.90
31769;DHT22;18342;52.132;21.048;2022-08-04T18:26:47;25.00;99.90
31769;DHT22;18342;52.132;21.048;2022-08-04T18:29:12;24.90;99.90
31769;DHT22;18342;52.132;21.048;2022-08-04T18:31:38;24.90;99.90
31769;DHT22;18342;52.132;21.048;2022-08-04T18:34:05;24.80;99.90
31769;DHT22;18342;52.132;21.048;2022-08-04T18:36:32;24.70;99.90
31769;DHT22;18342;52.132;21.048;2022-08-04T18:39:00;24.70;99.90
31769;DHT22;18342;52.132;21.048;2022-08-04T18:41:27;24.60;99.90
31769;DHT22;18342;52.132;21.048;2022-08-04T18:43:56;24.60;99.90
31769;DHT22;18342;52.132;21.048;2022-08-04T18:46:25;24.50;99.90
31769;DHT22;18342;52.132;21.048;2022-08-04T18:48:51;24.50;99.90
31769;DHT22;18342;52.132;21.048;2022-08-04T18:51:16;24.50;99.90
31769;DHT22;18342;52.132;21.048;2022-08-04T18:53:45;24.40;99.90
31769;DHT22;18342;52.132;21.048;2022-08-04T18:56:13;24.40;99.90
31769;DHT22;18342;52.132;21.048;2022-08-04T18:58:40;24.30;99.90
31769;DHT22;18342;52.132;21.048;2022-08-04T19:01:06;24.20;99.90
31769;DHT22;18342;52.132;21.048;2022-08-04T19:03:33;24.20;99.90
31769;DHT22;18342;52.132;21.048;2022-08-04T19:06:00;24.20;99.90
31769;DHT22;18342;52.132;21.048;2022-08-04T19:08:26;24.20;99.90
31769;DHT22;18342;52.132;21.048;2022-08-04T19:10:51;24.10;99.90
31769;DHT22;18342;52.132;21.048;2022-08-04T19:13:17;24.10;99.90
31769;DHT22;18342;52.132;21.048;2022-08-04T19:15:43;24.00;99.90
31769;DHT22;18342;52.132;21.048;2022-08-04T19:18:08;24.00;99.90
31769;DHT22;18342;52.132;21.048;2022-08-04T19:20:34;24.00;99.90
31769;DHT22;18342;52.132;21.048;2022-08-04T19:23:00;23.90;99.90
31769;DHT22;18342;52.132;21.048;2022-08-04T19:25:25;23.80;99.90
31769;DHT22;18342;52.132;21.048;2022-08-04T19:27:51;23.80;99.90
31769;DHT22;18342;52.132;21.048;2022-08-04T19:30:17;23.80;99.90
31769;DHT22;18342;52.132;21.048;2022-08-04T19:32:42;23.70;99.90
31769;DHT22;18342;52.132;21.048;2022-08-04T19:35:08;23.60;99.90
31769;DHT22;18342;52.132;21.048;2022-08-04T19:37:34;23.60;99.90
31769;DHT22;18342;52.132;21.048;2022-08-04T19:40:00;23.60;99.90
31769;DHT22;18342;52.132;21.048;2022-08-04T19:42:25;23.60;99.90
31769;DHT22;18342;52.132;21.048;2022-08-04T19:44:51;23.60;99.90
31769;DHT22;18342;52.132;21.048;2022-08-04T19:47:17;23.50;99.90
31769;DHT22;18342;52.132;21.048;2022-08-04T19:49:42;23.50;99.90
31769;DHT22;18342;52.132;21.048;2022-08-04T19:52:08;23.50;99.90
31769;DHT22;18342;52.132;21.048;2022-08-04T19:54:34;23.40;99.90
31769;DHT22;18342;52.132;21.048;2022-08-04T19:56:59;23.40;99.90
31769;DHT22;18342;52.132;21.048;2022-08-04T19:59:25;23.40;99.90
31769;DHT22;18342;52.132;21.048;2022-08-04T20:01:50;23.30;99.90
31769;DHT22;18342;52.132;21.048;2022-08-04T20:04:16;23.30;99.90
31769;DHT22;18342;52.132;21.048;2022-08-04T20:06:42;23.30;99.90
31769;DHT22;18342;52.132;21.048;2022-08-04T20:09:08;23.30;99.90
31769;DHT22;18342;52.132;21.048;2022-08-04T20:11:34;23.30;99.90
31769;DHT22;18342;52.132;21.048;2022-08-04T20:14:00;23.20;99.90
31769;DHT22;18342;52.132;21.048;2022-08-04T20:16:25;23.20;99.90
31769;DHT22;18342;52.132;21.048;2022-08-04T20:18:51;23.20;99.90
31769;DHT22;18342;52.132;21.048;2022-08-04T20:21:17;23.20;99.90
31769;DHT22;18342;52.132;21.048;2022-08-04T20:23:42;23.20;99.90
31769;DHT22;18342;52.132;21.048;2022-08-04T20:26:09;23.20;99.90
31769;DHT22;18342;52.132;21.048;2022-08-04T20:28:34;23.20;99.90
31769;DHT22;18342;52.132;21.048;2022-08-04T20:31:01;23.10;99.90
31769;DHT22;18342;52.132;21.048;2022-08-04T20:33:27;23.10;99.90
31769;DHT22;18342;52.132;21.048;2022-08-04T20:35:53;23.10;99.90
31769;DHT22;18342;52.132;21.048;2022-08-04T20:38:18;23.10;99.90
31769;DHT22;18342;52.132;21.048;2022-08-04T20:40:44;23.10;99.90
31769;DHT22;18342;52.132;21.048;2022-08-04T20:43:11;23.00;99.90
31769;DHT22;18342;52.132;21.048;2022-08-04T20:45:37;23.00;99.90
31769;DHT22;18342;52.132;21.048;2022-08-04T20:48:03;23.00;99.90
31769;DHT22;18342;52.132;21.048;2022-08-04T20:50:29;22.90;99.90
31769;DHT22;18342;52.132;21.048;2022-08-04T20:52:54;22.90;99.90